sensor_id;sensor_type;location;lat;lon;timestamp;P1;durP1;ratioP1;P2;durP2;ratioP2
31680;SDS011;18281;51.364;9.566;2023-02-28T00:01:13;3.00;;;2.20;;
31680;SDS011;18281;51.364;9.566;2023-02-28T00:03:39;2.97;;;1.50;;
31680;SDS011;18281;51.364;9.566;2023-02-28T00:06:05;2.90;;;1.55;;
31680;SDS011;18281;51.364;9.566;2023-02-28T00:08:32;2.03;;;1.38;;
31680;SDS011;18281;51.364;9.566;2023-02-28T00:11:02;2.97;;;1.50;;
31680;SDS011;18281;51.364;9.566;2023-02-28T00:13:31;2.60;;;1.55;;
31680;SDS011;18281;51.364;9.566;2023-02-28T00:16:02;3.55;;;1.92;;
31680;SDS011;18281;51.364;9.566;2023-02-28T00:18:37;1.98;;;1.48;;
31680;SDS011;18281;51.364;9.566;2023-02-28T00:21:03;2.58;;;1.80;;
31680;SDS011;18281;51.364;9.566;2023-02-28T00:23:28;2.75;;;1.55;;
31680;SDS011;18281;51.364;9.566;2023-02-28T00:25:54;2.22;;;1.38;;
31680;SDS011;18281;51.364;9.566;2023-02-28T00:28:20;2.00;;;1.65;;
31680;SDS011;18281;51.364;9.566;2023-02-28T00:30:45;2.25;;;1.45;;
31680;SDS011;18281;51.364;9.566;2023-02-28T00:33:11;5.18;;;1.73;;
31680;SDS011;18281;51.364;9.566;2023-02-28T00:35:37;3.08;;;1.88;;
31680;SDS011;18281;51.364;9.566;2023-02-28T00:38:02;3.63;;;1.65;;
31680;SDS011;18281;51.364;9.566;2023-02-28T00:40:28;1.98;;;1.42;;
31680;SDS011;18281;51.364;9.566;2023-02-28T00:42:54;2.35;;;1.38;;
31680;SDS011;18281;51.364;9.566;2023-02-28T00:45:19;2.08;;;1.30;;
31680;SDS011;18281;51.364;9.566;2023-02-28T00:47:44;1.85;;;1.40;;
31680;SDS011;18281;51.364;9.566;2023-02-28T00:50:11;3.90;;;1.80;;
31680;SDS011;18281;51.364;9.566;2023-02-28T00:52:37;3.10;;;1.85;;
31680;SDS011;18281;51.364;9.566;2023-02-28T00:55:02;2.25;;;1.42;;
31680;SDS011;18281;51.364;9.566;2023-02-28T00:57:28;1.45;;;1.30;;
31680;SDS011;18281;51.364;9.566;2023-02-28T00:59:53;3.00;;;1.40;;
31680;SDS011;18281;51.364;9.566;2023-02-28T01:02:19;2.35;;;1.50;;
31680;SDS011;18281;51.364;9.566;2023-02-28T01:04:46;2.28;;;1.33;;
31680;SDS011;18281;51.364;9.566;2023-02-28T01:07:11;3.45;;;1.60;;
31680;SDS011;18281;51.364;9.566;2023-02-28T01:09:37;1.95;;;1.33;;
31680;SDS011;18281;51.364;9.566;2023-02-28T01:12:03;2.78;;;1.70;;
31680;SDS011;18281;51.364;9.566;2023-02-28T01:14:28;3.20;;;1.67;;
31680;SDS011;18281;51.364;9.566;2023-02-28T01:16:54;2.80;;;1.85;;
31680;SDS011;18281;51.364;9.566;2023-02-28T01:19:19;2.35;;;1.67;;
31680;SDS011;18281;51.364;9.566;2023-02-28T01:21:44;3.08;;;1.90;;
31680;SDS011;18281;51.364;9.566;2023-02-28T01:24:10;3.25;;;1.60;;
31680;SDS011;18281;51.364;9.566;2023-02-28T01:26:35;2.67;;;1.50;;
31680;SDS011;18281;51.364;9.566;2023-02-28T01:29:00;4.10;;;1.60;;
31680;SDS011;18281;51.364;9.566;2023-02-28T01:31:26;3.20;;;1.23;;
31680;SDS011;18281;51.364;9.566;2023-02-28T01:33:51;5.05;;;1.90;;
31680;SDS011;18281;51.364;9.566;2023-02-28T01:36:18;2.05;;;1.45;;
31680;SDS011;18281;51.364;9.566;2023-02-28T01:38:45;4.22;;;1.23;;
31680;SDS011;18281;51.364;9.566;2023-02-28T01:41:16;2.33;;;1.35;;
31680;SDS011;18281;51.364;9.566;2023-02-28T01:46:07;3.00;;;1.33;;
31680;SDS011;18281;51.364;9.566;2023-02-28T01:48:34;5.70;;;1.50;;
31680;SDS011;18281;51.364;9.566;2023-02-28T01:51:05;4.22;;;1.40;;
31680;SDS011;18281;51.364;9.566;2023-02-28T01:53:37;1.95;;;1.30;;
31680;SDS011;18281;51.364;9.566;2023-02-28T01:56:07;1.98;;;1.23;;
31680;SDS011;18281;51.364;9.566;2023-02-28T01:58:36;2.70;;;1.17;;
31680;SDS011;18281;51.364;9.566;2023-02-28T02:01:02;2.00;;;0.98;;
31680;SDS011;18281;51.364;9.566;2023-02-28T02:03:28;3.55;;;1.30;;
31680;SDS011;18281;51.364;9.566;2023-02-28T02:05:55;3.58;;;1.45;;
31680;SDS011;18281;51.364;9.566;2023-02-28T02:08:22;2.17;;;0.98;;
31680;SDS011;18281;51.364;9.566;2023-02-28T02:10:51;1.23;;;0.90;;
31680;SDS011;18281;51.364;9.566;2023-02-28T02:18:58;3.15;;;1.30;;
31680;SDS011;18281;51.364;9.566;2023-02-28T02:35:26;2.63;;;1.23;;
31680;SDS011;18281;51.364;9.566;2023-02-28T02:40:35;3.03;;;1.38;;
31680;SDS011;18281;51.364;9.566;2023-02-28T02:43:08;3.17;;;1.30;;
31680;SDS011;18281;51.364;9.566;2023-02-28T02:45:51;1.92;;;1.00;;
31680;SDS011;18281;51.364;9.566;2023-02-28T02:48:21;4.05;;;0.95;;
31680;SDS011;18281;51.364;9.566;2023-02-28T02:50:53;1.90;;;1.40;;
31680;SDS011;18281;51.364;9.566;2023-02-28T02:53:22;2.08;;;1.10;;
31680;SDS011;18281;51.364;9.566;2023-02-28T02:55:52;1.42;;;1.08;;
31680;SDS011;18281;51.364;9.566;2023-02-28T02:58:22;1.35;;;1.10;;
31680;SDS011;18281;51.364;9.566;2023-02-28T03:00:52;3.47;;;1.00;;
31680;SDS011;18281;51.364;9.566;2023-02-28T03:05:54;1.70;;;1.05;;
31680;SDS011;18281;51.364;9.566;2023-02-28T03:08:21;1.58;;;1.00;;
31680;SDS011;18281;51.364;9.566;2023-02-28T03:10:51;1.55;;;1.10;;
31680;SDS011;18281;51.364;9.566;2023-02-28T03:27:44;1.38;;;0.82;;
31680;SDS011;18281;51.364;9.566;2023-02-28T03:32:55;1.52;;;1.10;;
31680;SDS011;18281;51.364;9.566;2023-02-28T03:35:26;1.17;;;0.85;;
31680;SDS011;18281;51.364;9.566;2023-02-28T03:37:59;1.45;;;0.93;;
31680;SDS011;18281;51.364;9.566;2023-02-28T03:40:30;2.03;;;1.20;;
31680;SDS011;18281;51.364;9.566;2023-02-28T03:45:29;2.45;;;1.00;;
31680;SDS011;18281;51.364;9.566;2023-02-28T03:48:04;1.10;;;1.00;;
31680;SDS011;18281;51.364;9.566;2023-02-28T03:50:36;0.77;;;0.77;;
31680;SDS011;18281;51.364;9.566;2023-02-28T03:55:40;3.83;;;1.25;;
31680;SDS011;18281;51.364;9.566;2023-02-28T03:58:16;1.48;;;0.90;;
31680;SDS011;18281;51.364;9.566;2023-02-28T04:00:51;1.85;;;0.80;;
31680;SDS011;18281;51.364;9.566;2023-02-28T04:03:21;1.55;;;1.05;;
31680;SDS011;18281;51.364;9.566;2023-02-28T04:05:53;3.42;;;1.00;;
31680;SDS011;18281;51.364;9.566;2023-02-28T04:08:20;1.73;;;1.02;;
31680;SDS011;18281;51.364;9.566;2023-02-28T04:10:48;2.70;;;1.38;;
31680;SDS011;18281;51.364;9.566;2023-02-28T04:13:21;1.25;;;0.95;;
31680;SDS011;18281;51.364;9.566;2023-02-28T04:15:46;2.03;;;1.00;;
31680;SDS011;18281;51.364;9.566;2023-02-28T04:18:12;1.90;;;1.23;;
31680;SDS011;18281;51.364;9.566;2023-02-28T04:20:37;2.78;;;1.10;;
31680;SDS011;18281;51.364;9.566;2023-02-28T04:23:02;1.50;;;0.98;;
31680;SDS011;18281;51.364;9.566;2023-02-28T04:25:28;1.20;;;1.10;;
31680;SDS011;18281;51.364;9.566;2023-02-28T04:27:53;1.33;;;0.75;;
31680;SDS011;18281;51.364;9.566;2023-02-28T04:30:19;3.92;;;1.13;;
31680;SDS011;18281;51.364;9.566;2023-02-28T04:32:44;1.10;;;1.00;;
31680;SDS011;18281;51.364;9.566;2023-02-28T04:35:09;3.60;;;1.13;;
31680;SDS011;18281;51.364;9.566;2023-02-28T04:37:35;4.53;;;1.20;;
31680;SDS011;18281;51.364;9.566;2023-02-28T04:40:01;3.08;;;0.98;;
31680;SDS011;18281;51.364;9.566;2023-02-28T04:42:27;1.65;;;1.02;;
31680;SDS011;18281;51.364;9.566;2023-02-28T04:45:00;0.77;;;0.68;;
31680;SDS011;18281;51.364;9.566;2023-02-28T04:47:25;1.30;;;0.80;;
31680;SDS011;18281;51.364;9.566;2023-02-28T04:49:50;4.65;;;0.73;;
31680;SDS011;18281;51.364;9.566;2023-02-28T04:52:16;1.08;;;0.90;;
31680;SDS011;18281;51.364;9.566;2023-02-28T04:54:41;2.95;;;1.40;;
31680;SDS011;18281;51.364;9.566;2023-02-28T04:57:06;1.77;;;1.20;;
31680;SDS011;18281;51.364;9.566;2023-02-28T04:59:32;1.60;;;1.10;;
31680;SDS011;18281;51.364;9.566;2023-02-28T05:01:57;2.22;;;1.08;;
31680;SDS011;18281;51.364;9.566;2023-02-28T05:04:23;1.00;;;0.80;;
31680;SDS011;18281;51.364;9.566;2023-02-28T05:06:48;1.20;;;1.00;;
31680;SDS011;18281;51.364;9.566;2023-02-28T05:09:13;0.77;;;0.77;;
31680;SDS011;18281;51.364;9.566;2023-02-28T05:11:39;1.50;;;1.10;;
31680;SDS011;18281;51.364;9.566;2023-02-28T05:14:06;1.80;;;1.40;;
31680;SDS011;18281;51.364;9.566;2023-02-28T05:16:35;2.08;;;1.15;;
31680;SDS011;18281;51.364;9.566;2023-02-28T05:19:01;2.55;;;1.30;;
31680;SDS011;18281;51.364;9.566;2023-02-28T05:23:57;1.48;;;1.38;;
31680;SDS011;18281;51.364;9.566;2023-02-28T05:26:29;2.28;;;1.23;;
31680;SDS011;18281;51.364;9.566;2023-02-28T05:28:55;2.05;;;1.10;;
31680;SDS011;18281;51.364;9.566;2023-02-28T05:31:21;1.40;;;1.20;;
31680;SDS011;18281;51.364;9.566;2023-02-28T05:33:47;1.33;;;1.05;;
31680;SDS011;18281;51.364;9.566;2023-02-28T05:36:13;1.98;;;1.20;;
31680;SDS011;18281;51.364;9.566;2023-02-28T05:38:38;1.88;;;1.30;;
31680;SDS011;18281;51.364;9.566;2023-02-28T05:41:10;2.45;;;0.95;;
31680;SDS011;18281;51.364;9.566;2023-02-28T05:43:36;2.28;;;1.25;;
31680;SDS011;18281;51.364;9.566;2023-02-28T05:46:03;1.65;;;1.10;;
31680;SDS011;18281;51.364;9.566;2023-02-28T05:48:33;1.83;;;1.08;;
31680;SDS011;18281;51.364;9.566;2023-02-28T05:51:00;1.52;;;1.08;;
31680;SDS011;18281;51.364;9.566;2023-02-28T05:53:25;2.33;;;1.08;;
31680;SDS011;18281;51.364;9.566;2023-02-28T05:55:51;1.83;;;1.13;;
31680;SDS011;18281;51.364;9.566;2023-02-28T05:58:17;1.50;;;1.25;;
31680;SDS011;18281;51.364;9.566;2023-02-28T06:00:42;1.60;;;0.95;;
31680;SDS011;18281;51.364;9.566;2023-02-28T06:03:07;1.92;;;1.20;;
31680;SDS011;18281;51.364;9.566;2023-02-28T06:05:33;2.22;;;1.40;;
31680;SDS011;18281;51.364;9.566;2023-02-28T06:07:58;2.40;;;1.40;;
31680;SDS011;18281;51.364;9.566;2023-02-28T06:10:24;3.55;;;1.00;;
31680;SDS011;18281;51.364;9.566;2023-02-28T06:12:49;1.05;;;0.95;;
31680;SDS011;18281;51.364;9.566;2023-02-28T06:15:15;3.17;;;1.20;;
31680;SDS011;18281;51.364;9.566;2023-02-28T06:17:42;2.97;;;1.10;;
31680;SDS011;18281;51.364;9.566;2023-02-28T06:20:08;1.10;;;1.00;;
31680;SDS011;18281;51.364;9.566;2023-02-28T06:22:37;1.20;;;1.10;;
31680;SDS011;18281;51.364;9.566;2023-02-28T06:25:03;1.67;;;1.27;;
31680;SDS011;18281;51.364;9.566;2023-02-28T06:27:30;1.55;;;1.30;;
31680;SDS011;18281;51.364;9.566;2023-02-28T06:29:56;1.30;;;1.20;;
31680;SDS011;18281;51.364;9.566;2023-02-28T06:32:21;2.08;;;1.38;;
31680;SDS011;18281;51.364;9.566;2023-02-28T06:34:47;2.80;;;1.60;;
31680;SDS011;18281;51.364;9.566;2023-02-28T06:37:12;3.85;;;1.98;;
31680;SDS011;18281;51.364;9.566;2023-02-28T06:39:38;2.80;;;1.70;;
31680;SDS011;18281;51.364;9.566;2023-02-28T06:42:03;2.95;;;1.50;;
31680;SDS011;18281;51.364;9.566;2023-02-28T06:44:28;1.70;;;1.20;;
31680;SDS011;18281;51.364;9.566;2023-02-28T06:47:00;3.63;;;1.60;;
31680;SDS011;18281;51.364;9.566;2023-02-28T06:49:27;2.40;;;1.30;;
31680;SDS011;18281;51.364;9.566;2023-02-28T06:51:52;2.00;;;1.40;;
31680;SDS011;18281;51.364;9.566;2023-02-28T06:54:19;9.57;;;1.50;;
31680;SDS011;18281;51.364;9.566;2023-02-28T06:56:44;2.00;;;1.42;;
31680;SDS011;18281;51.364;9.566;2023-02-28T06:59:09;2.75;;;1.30;;
31680;SDS011;18281;51.364;9.566;2023-02-28T07:01:35;1.75;;;1.20;;
31680;SDS011;18281;51.364;9.566;2023-02-28T07:04:00;5.50;;;1.60;;
31680;SDS011;18281;51.364;9.566;2023-02-28T07:06:26;1.92;;;1.38;;
31680;SDS011;18281;51.364;9.566;2023-02-28T07:08:52;4.55;;;1.35;;
31680;SDS011;18281;51.364;9.566;2023-02-28T07:11:18;2.45;;;1.10;;
31680;SDS011;18281;51.364;9.566;2023-02-28T07:13:44;2.13;;;1.48;;
31680;SDS011;18281;51.364;9.566;2023-02-28T07:16:11;2.63;;;1.50;;
31680;SDS011;18281;51.364;9.566;2023-02-28T07:18:37;1.52;;;1.10;;
31680;SDS011;18281;51.364;9.566;2023-02-28T07:21:03;2.55;;;1.70;;
31680;SDS011;18281;51.364;9.566;2023-02-28T07:23:30;2.42;;;1.30;;
31680;SDS011;18281;51.364;9.566;2023-02-28T07:25:55;2.47;;;1.70;;
31680;SDS011;18281;51.364;9.566;2023-02-28T07:28:21;2.72;;;1.20;;
31680;SDS011;18281;51.364;9.566;2023-02-28T07:30:46;3.10;;;1.63;;
31680;SDS011;18281;51.364;9.566;2023-02-28T07:33:12;1.70;;;1.33;;
31680;SDS011;18281;51.364;9.566;2023-02-28T07:35:38;1.95;;;1.15;;
31680;SDS011;18281;51.364;9.566;2023-02-28T07:38:03;2.22;;;1.40;;
31680;SDS011;18281;51.364;9.566;2023-02-28T07:40:29;1.80;;;1.15;;
31680;SDS011;18281;51.364;9.566;2023-02-28T07:42:54;3.08;;;1.40;;
31680;SDS011;18281;51.364;9.566;2023-02-28T07:45:20;2.83;;;1.58;;
31680;SDS011;18281;51.364;9.566;2023-02-28T07:47:45;3.53;;;1.40;;
31680;SDS011;18281;51.364;9.566;2023-02-28T07:50:12;3.50;;;1.95;;
31680;SDS011;18281;51.364;9.566;2023-02-28T07:52:39;6.50;;;2.78;;
31680;SDS011;18281;51.364;9.566;2023-02-28T07:55:06;5.10;;;2.00;;
31680;SDS011;18281;51.364;9.566;2023-02-28T07:57:32;3.03;;;1.90;;
31680;SDS011;18281;51.364;9.566;2023-02-28T07:59:58;5.28;;;2.10;;
31680;SDS011;18281;51.364;9.566;2023-02-28T08:02:23;5.35;;;2.70;;
31680;SDS011;18281;51.364;9.566;2023-02-28T08:04:48;2.17;;;1.77;;
31680;SDS011;18281;51.364;9.566;2023-02-28T08:07:14;3.53;;;1.90;;
31680;SDS011;18281;51.364;9.566;2023-02-28T08:09:40;3.58;;;1.70;;
31680;SDS011;18281;51.364;9.566;2023-02-28T08:12:06;2.55;;;1.27;;
31680;SDS011;18281;51.364;9.566;2023-02-28T08:14:32;2.13;;;1.55;;
31680;SDS011;18281;51.364;9.566;2023-02-28T08:16:58;4.25;;;1.60;;
31680;SDS011;18281;51.364;9.566;2023-02-28T08:19:23;3.80;;;1.70;;
31680;SDS011;18281;51.364;9.566;2023-02-28T08:21:49;2.55;;;1.45;;
31680;SDS011;18281;51.364;9.566;2023-02-28T08:24:14;3.15;;;1.15;;
31680;SDS011;18281;51.364;9.566;2023-02-28T08:26:40;3.28;;;1.30;;
31680;SDS011;18281;51.364;9.566;2023-02-28T08:29:05;2.15;;;0.98;;
31680;SDS011;18281;51.364;9.566;2023-02-28T08:31:30;1.88;;;1.17;;
31680;SDS011;18281;51.364;9.566;2023-02-28T08:33:56;1.67;;;1.17;;
31680;SDS011;18281;51.364;9.566;2023-02-28T08:36:24;5.35;;;1.30;;
31680;SDS011;18281;51.364;9.566;2023-02-28T08:38:50;2.13;;;1.30;;
31680;SDS011;18281;51.364;9.566;2023-02-28T08:41:16;5.07;;;1.52;;
31680;SDS011;18281;51.364;9.566;2023-02-28T08:43:42;2.00;;;1.20;;
31680;SDS011;18281;51.364;9.566;2023-02-28T08:46:07;7.18;;;1.75;;
31680;SDS011;18281;51.364;9.566;2023-02-28T08:48:35;1.60;;;1.42;;
31680;SDS011;18281;51.364;9.566;2023-02-28T08:51:13;2.25;;;1.08;;
31680;SDS011;18281;51.364;9.566;2023-02-28T08:53:47;1.70;;;1.55;;
31680;SDS011;18281;51.364;9.566;2023-02-28T08:56:14;3.60;;;1.42;;
31680;SDS011;18281;51.364;9.566;2023-02-28T08:58:41;1.52;;;1.40;;
31680;SDS011;18281;51.364;9.566;2023-02-28T09:01:15;2.75;;;1.65;;
31680;SDS011;18281;51.364;9.566;2023-02-28T09:03:42;1.73;;;1.63;;
31680;SDS011;18281;51.364;9.566;2023-02-28T09:06:09;2.45;;;1.58;;
31680;SDS011;18281;51.364;9.566;2023-02-28T09:08:35;1.85;;;1.50;;
31680;SDS011;18281;51.364;9.566;2023-02-28T09:11:02;1.30;;;1.20;;
31680;SDS011;18281;51.364;9.566;2023-02-28T09:13:28;1.30;;;1.15;;
31680;SDS011;18281;51.364;9.566;2023-02-28T09:15:55;2.22;;;1.48;;
31680;SDS011;18281;51.364;9.566;2023-02-28T09:18:22;1.58;;;1.40;;
31680;SDS011;18281;51.364;9.566;2023-02-28T09:20:48;3.50;;;1.15;;
31680;SDS011;18281;51.364;9.566;2023-02-28T09:23:13;2.67;;;1.30;;
31680;SDS011;18281;51.364;9.566;2023-02-28T09:25:44;1.25;;;0.90;;
31680;SDS011;18281;51.364;9.566;2023-02-28T09:28:12;2.13;;;1.60;;
31680;SDS011;18281;51.364;9.566;2023-02-28T09:30:37;3.05;;;1.50;;
31680;SDS011;18281;51.364;9.566;2023-02-28T09:33:03;2.80;;;1.60;;
31680;SDS011;18281;51.364;9.566;2023-02-28T09:35:29;2.55;;;1.50;;
31680;SDS011;18281;51.364;9.566;2023-02-28T09:37:55;4.68;;;1.45;;
31680;SDS011;18281;51.364;9.566;2023-02-28T09:40:23;3.45;;;1.40;;
31680;SDS011;18281;51.364;9.566;2023-02-28T09:42:51;1.67;;;1.52;;
31680;SDS011;18281;51.364;9.566;2023-02-28T09:45:22;2.65;;;1.50;;
31680;SDS011;18281;51.364;9.566;2023-02-28T09:47:48;2.08;;;1.40;;
31680;SDS011;18281;51.364;9.566;2023-02-28T09:52:51;2.15;;;1.83;;
31680;SDS011;18281;51.364;9.566;2023-02-28T09:57:44;2.95;;;1.30;;
31680;SDS011;18281;51.364;9.566;2023-02-28T10:00:15;3.60;;;1.60;;
31680;SDS011;18281;51.364;9.566;2023-02-28T10:02:49;3.20;;;1.95;;
31680;SDS011;18281;51.364;9.566;2023-02-28T10:05:28;2.20;;;1.50;;
31680;SDS011;18281;51.364;9.566;2023-02-28T10:13:06;2.88;;;1.70;;
31680;SDS011;18281;51.364;9.566;2023-02-28T10:15:40;1.65;;;1.33;;
31680;SDS011;18281;51.364;9.566;2023-02-28T10:18:11;2.00;;;1.50;;
31680;SDS011;18281;51.364;9.566;2023-02-28T10:20:40;2.70;;;1.60;;
31680;SDS011;18281;51.364;9.566;2023-02-28T10:23:10;2.03;;;1.30;;
31680;SDS011;18281;51.364;9.566;2023-02-28T10:25:41;2.70;;;1.40;;
31680;SDS011;18281;51.364;9.566;2023-02-28T10:28:13;5.10;;;2.25;;
31680;SDS011;18281;51.364;9.566;2023-02-28T10:30:43;2.30;;;1.30;;
31680;SDS011;18281;51.364;9.566;2023-02-28T10:33:16;2.42;;;1.63;;
31680;SDS011;18281;51.364;9.566;2023-02-28T10:35:52;3.17;;;1.60;;
31680;SDS011;18281;51.364;9.566;2023-02-28T10:38:39;3.47;;;2.40;;
31680;SDS011;18281;51.364;9.566;2023-02-28T10:43:34;2.63;;;1.70;;
31680;SDS011;18281;51.364;9.566;2023-02-28T10:48:45;3.35;;;1.88;;
31680;SDS011;18281;51.364;9.566;2023-02-28T10:51:22;1.90;;;1.60;;
31680;SDS011;18281;51.364;9.566;2023-02-28T10:53:49;3.10;;;1.90;;
31680;SDS011;18281;51.364;9.566;2023-02-28T10:56:22;3.17;;;1.58;;
31680;SDS011;18281;51.364;9.566;2023-02-28T11:03:55;2.13;;;1.85;;
31680;SDS011;18281;51.364;9.566;2023-02-28T11:06:23;3.50;;;1.92;;
31680;SDS011;18281;51.364;9.566;2023-02-28T11:11:19;6.47;;;1.70;;
31680;SDS011;18281;51.364;9.566;2023-02-28T11:13:46;3.03;;;1.75;;
31680;SDS011;18281;51.364;9.566;2023-02-28T11:16:15;2.17;;;1.73;;
31680;SDS011;18281;51.364;9.566;2023-02-28T11:18:42;2.75;;;1.70;;
31680;SDS011;18281;51.364;9.566;2023-02-28T11:21:21;1.70;;;1.52;;
31680;SDS011;18281;51.364;9.566;2023-02-28T11:23:48;2.97;;;1.50;;
31680;SDS011;18281;51.364;9.566;2023-02-28T11:26:16;2.88;;;1.50;;
31680;SDS011;18281;51.364;9.566;2023-02-28T11:28:49;1.70;;;1.50;;
31680;SDS011;18281;51.364;9.566;2023-02-28T11:31:33;2.58;;;1.70;;
31680;SDS011;18281;51.364;9.566;2023-02-28T11:33:59;3.47;;;1.80;;
31680;SDS011;18281;51.364;9.566;2023-02-28T11:36:26;2.25;;;1.67;;
31680;SDS011;18281;51.364;9.566;2023-02-28T11:46:56;1.70;;;1.40;;
31680;SDS011;18281;51.364;9.566;2023-02-28T12:00:25;2.38;;;1.30;;
31680;SDS011;18281;51.364;9.566;2023-02-28T12:05:53;2.50;;;1.35;;
31680;SDS011;18281;51.364;9.566;2023-02-28T12:19:32;2.60;;;2.05;;
31680;SDS011;18281;51.364;9.566;2023-02-28T12:22:20;4.85;;;2.00;;
31680;SDS011;18281;51.364;9.566;2023-02-28T12:25:10;2.53;;;1.77;;
31680;SDS011;18281;51.364;9.566;2023-02-28T12:27:46;4.18;;;1.75;;
31680;SDS011;18281;51.364;9.566;2023-02-28T12:33:08;2.95;;;1.83;;
31680;SDS011;18281;51.364;9.566;2023-02-28T12:35:36;5.53;;;1.70;;
31680;SDS011;18281;51.364;9.566;2023-02-28T12:38:10;2.95;;;1.80;;
31680;SDS011;18281;51.364;9.566;2023-02-28T12:40:43;3.95;;;1.45;;
31680;SDS011;18281;51.364;9.566;2023-02-28T12:43:13;2.00;;;1.80;;
31680;SDS011;18281;51.364;9.566;2023-02-28T12:48:24;2.28;;;1.63;;
31680;SDS011;18281;51.364;9.566;2023-02-28T12:50:54;4.57;;;1.92;;
31680;SDS011;18281;51.364;9.566;2023-02-28T12:58:36;3.47;;;2.20;;
31680;SDS011;18281;51.364;9.566;2023-02-28T13:03:44;1.73;;;1.52;;
31680;SDS011;18281;51.364;9.566;2023-02-28T13:11:45;2.53;;;1.80;;
31680;SDS011;18281;51.364;9.566;2023-02-28T13:19:29;4.18;;;1.52;;
31680;SDS011;18281;51.364;9.566;2023-02-28T13:21:56;2.23;;;1.60;;
31680;SDS011;18281;51.364;9.566;2023-02-28T13:27:11;1.70;;;1.60;;
31680;SDS011;18281;51.364;9.566;2023-02-28T13:29:50;2.95;;;1.65;;
31680;SDS011;18281;51.364;9.566;2023-02-28T13:39:52;2.80;;;1.80;;
31680;SDS011;18281;51.364;9.566;2023-02-28T13:47:28;2.10;;;1.50;;
31680;SDS011;18281;51.364;9.566;2023-02-28T13:50:14;2.97;;;1.83;;
31680;SDS011;18281;51.364;9.566;2023-02-28T13:52:48;4.65;;;1.85;;
31680;SDS011;18281;51.364;9.566;2023-02-28T13:55:27;2.92;;;2.03;;
31680;SDS011;18281;51.364;9.566;2023-02-28T14:17:55;10.40;;;3.15;;
31680;SDS011;18281;51.364;9.566;2023-02-28T14:20:22;11.75;;;3.22;;
31680;SDS011;18281;51.364;9.566;2023-02-28T14:23:02;8.98;;;2.75;;
31680;SDS011;18281;51.364;9.566;2023-02-28T14:26:01;11.80;;;2.88;;
31680;SDS011;18281;51.364;9.566;2023-02-28T14:28:43;6.30;;;2.80;;
31680;SDS011;18281;51.364;9.566;2023-02-28T14:31:45;4.53;;;2.70;;
31680;SDS011;18281;51.364;9.566;2023-02-28T14:37:09;2.47;;;2.28;;
31680;SDS011;18281;51.364;9.566;2023-02-28T14:39:40;3.95;;;2.45;;
31680;SDS011;18281;51.364;9.566;2023-02-28T14:42:27;3.85;;;2.67;;
31680;SDS011;18281;51.364;9.566;2023-02-28T14:45:00;3.55;;;2.55;;
31680;SDS011;18281;51.364;9.566;2023-02-28T14:47:28;2.97;;;2.50;;
31680;SDS011;18281;51.364;9.566;2023-02-28T14:49:57;3.20;;;2.20;;
31680;SDS011;18281;51.364;9.566;2023-02-28T14:52:24;6.05;;;3.33;;
31680;SDS011;18281;51.364;9.566;2023-02-28T14:55:01;4.90;;;2.78;;
31680;SDS011;18281;51.364;9.566;2023-02-28T14:57:34;3.70;;;2.72;;
31680;SDS011;18281;51.364;9.566;2023-02-28T15:02:45;4.47;;;2.78;;
31680;SDS011;18281;51.364;9.566;2023-02-28T15:07:42;5.30;;;2.85;;
31680;SDS011;18281;51.364;9.566;2023-02-28T15:10:17;5.55;;;2.85;;
31680;SDS011;18281;51.364;9.566;2023-02-28T15:12:54;3.65;;;2.85;;
31680;SDS011;18281;51.364;9.566;2023-02-28T15:15:21;3.67;;;2.78;;
31680;SDS011;18281;51.364;9.566;2023-02-28T15:17:50;3.90;;;2.75;;
31680;SDS011;18281;51.364;9.566;2023-02-28T15:20:18;5.03;;;2.90;;
31680;SDS011;18281;51.364;9.566;2023-02-28T15:22:45;5.18;;;3.20;;
31680;SDS011;18281;51.364;9.566;2023-02-28T15:25:13;3.92;;;2.75;;
31680;SDS011;18281;51.364;9.566;2023-02-28T15:27:44;3.80;;;2.87;;
31680;SDS011;18281;51.364;9.566;2023-02-28T15:30:21;6.80;;;3.33;;
31680;SDS011;18281;51.364;9.566;2023-02-28T15:35:38;3.60;;;2.70;;
31680;SDS011;18281;51.364;9.566;2023-02-28T15:38:12;3.90;;;2.92;;
31680;SDS011;18281;51.364;9.566;2023-02-28T15:40:52;4.90;;;3.05;;
31680;SDS011;18281;51.364;9.566;2023-02-28T15:43:27;4.95;;;3.17;;
31680;SDS011;18281;51.364;9.566;2023-02-28T15:46:09;7.32;;;3.28;;
31680;SDS011;18281;51.364;9.566;2023-02-28T15:48:51;4.88;;;3.17;;
31680;SDS011;18281;51.364;9.566;2023-02-28T15:53:50;8.55;;;3.63;;
31680;SDS011;18281;51.364;9.566;2023-02-28T15:56:27;3.55;;;2.90;;
31680;SDS011;18281;51.364;9.566;2023-02-28T15:59:05;5.30;;;3.15;;
31680;SDS011;18281;51.364;9.566;2023-02-28T16:01:33;3.42;;;2.78;;
31680;SDS011;18281;51.364;9.566;2023-02-28T16:04:01;4.05;;;2.90;;
31680;SDS011;18281;51.364;9.566;2023-02-28T16:06:37;5.53;;;2.88;;
31680;SDS011;18281;51.364;9.566;2023-02-28T16:09:23;4.68;;;2.63;;
31680;SDS011;18281;51.364;9.566;2023-02-28T16:11:49;3.67;;;3.00;;
31680;SDS011;18281;51.364;9.566;2023-02-28T16:14:21;4.60;;;3.17;;
31680;SDS011;18281;51.364;9.566;2023-02-28T16:16:50;5.82;;;3.33;;
31680;SDS011;18281;51.364;9.566;2023-02-28T16:19:18;4.38;;;3.10;;
31680;SDS011;18281;51.364;9.566;2023-02-28T16:21:44;4.85;;;3.53;;
31680;SDS011;18281;51.364;9.566;2023-02-28T16:24:10;5.13;;;3.55;;
31680;SDS011;18281;51.364;9.566;2023-02-28T16:26:35;9.43;;;2.90;;
31680;SDS011;18281;51.364;9.566;2023-02-28T16:29:04;3.67;;;2.88;;
31680;SDS011;18281;51.364;9.566;2023-02-28T16:31:30;6.30;;;3.20;;
31680;SDS011;18281;51.364;9.566;2023-02-28T16:34:00;7.32;;;3.30;;
31680;SDS011;18281;51.364;9.566;2023-02-28T16:36:25;4.18;;;3.25;;
31680;SDS011;18281;51.364;9.566;2023-02-28T16:38:50;4.45;;;2.88;;
31680;SDS011;18281;51.364;9.566;2023-02-28T16:41:26;5.07;;;3.33;;
31680;SDS011;18281;51.364;9.566;2023-02-28T16:43:54;7.15;;;3.38;;
31680;SDS011;18281;51.364;9.566;2023-02-28T16:46:25;7.20;;;3.38;;
31680;SDS011;18281;51.364;9.566;2023-02-28T16:48:55;4.15;;;3.10;;
31680;SDS011;18281;51.364;9.566;2023-02-28T16:51:20;6.28;;;2.92;;
31680;SDS011;18281;51.364;9.566;2023-02-28T16:53:46;4.57;;;2.92;;
31680;SDS011;18281;51.364;9.566;2023-02-28T16:56:16;4.63;;;3.22;;
31680;SDS011;18281;51.364;9.566;2023-02-28T16:58:44;5.97;;;3.50;;
31680;SDS011;18281;51.364;9.566;2023-02-28T17:01:09;3.22;;;2.83;;
31680;SDS011;18281;51.364;9.566;2023-02-28T17:03:37;3.67;;;2.95;;
31680;SDS011;18281;51.364;9.566;2023-02-28T17:06:03;4.93;;;2.97;;
31680;SDS011;18281;51.364;9.566;2023-02-28T17:08:43;5.97;;;3.38;;
31680;SDS011;18281;51.364;9.566;2023-02-28T17:11:11;6.28;;;3.38;;
31680;SDS011;18281;51.364;9.566;2023-02-28T17:13:39;4.35;;;3.05;;
31680;SDS011;18281;51.364;9.566;2023-02-28T17:16:05;5.22;;;2.15;;
31680;SDS011;18281;51.364;9.566;2023-02-28T17:18:54;6.85;;;2.53;;
31680;SDS011;18281;51.364;9.566;2023-02-28T17:21:24;4.97;;;2.40;;
31680;SDS011;18281;51.364;9.566;2023-02-28T17:24:13;2.80;;;2.00;;
31680;SDS011;18281;51.364;9.566;2023-02-28T17:26:44;3.65;;;2.35;;
31680;SDS011;18281;51.364;9.566;2023-02-28T17:29:17;3.70;;;2.13;;
31680;SDS011;18281;51.364;9.566;2023-02-28T17:31:45;5.55;;;3.00;;
31680;SDS011;18281;51.364;9.566;2023-02-28T17:34:11;3.22;;;2.85;;
31680;SDS011;18281;51.364;9.566;2023-02-28T17:36:43;6.13;;;3.22;;
31680;SDS011;18281;51.364;9.566;2023-02-28T17:39:09;4.60;;;2.95;;
31680;SDS011;18281;51.364;9.566;2023-02-28T17:41:39;4.45;;;3.28;;
31680;SDS011;18281;51.364;9.566;2023-02-28T17:44:06;3.22;;;2.92;;
31680;SDS011;18281;51.364;9.566;2023-02-28T17:46:31;4.88;;;2.90;;
31680;SDS011;18281;51.364;9.566;2023-02-28T17:48:57;4.38;;;3.08;;
31680;SDS011;18281;51.364;9.566;2023-02-28T17:51:23;3.03;;;2.40;;
31680;SDS011;18281;51.364;9.566;2023-02-28T17:53:49;5.15;;;2.95;;
31680;SDS011;18281;51.364;9.566;2023-02-28T17:56:19;8.68;;;3.42;;
31680;SDS011;18281;51.364;9.566;2023-02-28T17:58:50;4.30;;;3.10;;